Time;durP1;ratioP1;P1;durP2;ratioP2;P2;SDS_P1;SDS_P2;PMS_P1;PMS_P2;Temp;Humidity;BMP_temperature;BMP_pressure;BME280_temperature;BME280_humidity;BME280_pressure;Samples;Min_cycle;Max_cycle;Signal;HPM_P1;HPM_P2
2022/03/02 00:01:07;;;;;;;39.92;24.42;;;;;;;7.93;52.77;102583.06;7390457;19;20006;-63
2022/03/02 00:03:36;;;;;;;37.10;24.10;;;;;;;7.78;52.45;102591.84;7389927;19;20150;-63
2022/03/02 00:06:05;;;;;;;36.35;23.30;;;;;;;7.80;52.80;102586.59;7395113;19;20007;-63
2022/03/02 00:08:34;;;;;;;33.90;22.40;;;;;;;7.85;52.88;102592.69;7391772;19;20018;-62
2022/03/02 00:11:03;;;;;;;34.75;22.67;;;;;;;7.83;52.66;102585.72;7391158;19;20018;-63
2022/03/02 00:13:35;;;;;;;34.45;23.27;;;;;;;7.85;52.49;102590.06;7392728;19;20010;-63
2022/03/02 00:16:04;;;;;;;32.75;22.45;;;;;;;7.83;52.33;102588.34;7390797;19;20034;-63
2022/03/02 00:18:33;;;;;;;36.25;22.83;;;;;;;7.82;52.34;102587.44;7389816;19;20082;-63
2022/03/02 00:21:02;;;;;;;35.78;22.52;;;;;;;7.86;52.51;102590.94;7392176;19;20018;-63
2022/03/02 00:23:32;;;;;;;36.60;24.23;;;;;;;7.90;52.87;102590.06;7390764;19;20436;-63
2022/03/02 00:26:01;;;;;;;35.85;23.90;;;;;;;7.78;52.61;102588.38;7391543;19;20010;-63
2022/03/02 00:28:30;;;;;;;33.83;22.15;;;;;;;7.75;52.39;102589.25;7389519;19;20018;-63
2022/03/02 00:31:02;;;;;;;34.47;23.00;;;;;;;7.82;52.51;102577.00;7390890;19;20017;-63
2022/03/02 00:33:31;;;;;;;34.90;22.08;;;;;;;7.77;51.73;102582.25;7389635;19;20021;-63
2022/03/02 00:36:00;;;;;;;33.58;22.50;;;;;;;7.74;52.04;102582.28;7390749;19;20599;-63
2022/03/02 00:38:29;;;;;;;34.55;22.35;;;;;;;7.80;52.04;102581.38;7388633;19;20019;-63
2022/03/02 00:40:58;;;;;;;34.83;22.73;;;;;;;7.84;51.99;102575.28;7390014;19;20018;-63
2022/03/02 00:43:26;;;;;;;35.08;23.05;;;;;;;7.88;52.78;102571.78;7392780;19;20021;-64
2022/03/02 00:45:55;;;;;;;34.28;22.10;;;;;;;7.91;52.94;102577.00;7394032;19;20336;-63
2022/03/02 00:48:28;;;;;;;32.72;22.05;;;;;;;7.94;52.52;102574.34;7389993;19;20030;-63
2022/03/02 00:50:57;;;;;;;31.25;21.73;;;;;;;7.91;52.72;102571.78;7391985;19;20026;-64
2022/03/02 00:53:27;;;;;;;34.08;23.15;;;;;;;7.94;53.21;102576.97;7388493;19;20355;-63
2022/03/02 00:55:55;;;;;;;36.50;22.58;;;;;;;7.95;52.43;102578.72;7392684;19;20018;-64
2022/03/02 00:58:24;;;;;;;32.80;22.15;;;;;;;7.93;51.91;102570.00;7388838;19;20089;-64
2022/03/02 01:00:53;;;;;;;32.30;21.95;;;;;;;7.94;52.07;102563.06;7390831;19;20359;-63
2022/03/02 01:03:22;;;;;;;34.88;22.83;;;;;;;7.84;52.36;102570.06;7388641;19;20014;-63
2022/03/02 01:05:54;;;;;;;36.30;22.67;;;;;;;7.90;52.43;102554.38;7392870;19;20011;-63
2022/03/02 01:08:23;;;;;;;34.28;22.80;;;;;;;7.75;51.67;102557.94;7388125;19;20019;-64
2022/03/02 01:10:51;;;;;;;35.50;23.38;;;;;;;7.73;52.23;102557.06;7392014;19;20135;-64
2022/03/02 01:13:20;;;;;;;33.22;22.60;;;;;;;7.73;52.55;102554.44;7389905;19;20026;-63
2022/03/02 01:15:49;;;;;;;32.78;21.55;;;;;;;7.74;52.56;102550.09;7392155;19;20010;-63
2022/03/02 01:18:18;;;;;;;34.55;23.85;;;;;;;7.70;52.38;102551.00;7388204;19;20040;-63
2022/03/02 01:20:47;;;;;;;35.28;23.23;;;;;;;7.45;52.86;102553.69;7392559;19;20015;-63
2022/03/02 01:23:19;;;;;;;35.08;23.85;;;;;;;7.43;53.21;102545.00;7387161;19;20021;-63
2022/03/02 01:25:48;;;;;;;35.70;22.35;;;;;;;7.50;53.40;102545.84;7391519;19;20015;-63
2022/03/02 01:28:17;;;;;;;37.03;24.13;;;;;;;7.52;53.72;102550.19;7388362;19;20471;-63
2022/03/02 01:30:46;;;;;;;33.25;22.15;;;;;;;7.48;53.87;102540.66;7392182;19;20018;-61
2022/03/02 01:33:15;;;;;;;34.05;23.58;;;;;;;7.28;54.43;102546.78;7389569;19;20022;-62
2022/03/02 01:35:44;;;;;;;37.55;23.52;;;;;;;7.42;54.20;102544.13;7388658;19;20021;-62
2022/03/02 01:38:13;;;;;;;36.13;24.48;;;;;;;7.39;54.30;102545.88;7389947;19;20010;-63
2022/03/02 01:40:44;;;;;;;37.70;24.63;;;;;;;7.30;54.48;102540.69;7390014;19;20010;-65
2022/03/02 01:43:14;;;;;;;35.75;24.17;;;;;;;7.38;54.55;102538.91;7385743;19;20019;-64
2022/03/02 01:45:43;;;;;;;37.83;24.15;;;;;;;7.43;54.78;102532.81;7389498;19;20017;-64
2022/03/02 01:48:12;;;;;;;36.55;24.10;;;;;;;7.38;55.00;102531.97;7385928;19;20057;-63
2022/03/02 01:50:41;;;;;;;42.67;25.55;;;;;;;7.38;55.31;102531.97;7387761;19;20337;-64
2022/03/02 01:53:10;;;;;;;37.67;24.45;;;;;;;7.34;54.54;102530.25;7385588;19;20014;-65
2022/03/02 01:55:39;;;;;;;36.10;23.83;;;;;;;7.35;54.58;102532.00;7389543;19;20452;-63
2022/03/02 01:58:11;;;;;;;37.95;24.33;;;;;;;7.37;54.58;102525.03;7387627;19;20359;-62
2022/03/02 02:00:40;;;;;;;38.08;24.58;;;;;;;7.32;54.56;102528.50;7386030;19;20030;-62
2022/03/02 02:03:09;;;;;;;41.60;26.17;;;;;;;7.18;54.22;102532.03;7384645;19;20021;-62
2022/03/02 02:05:38;;;;;;;40.60;25.25;;;;;;;7.20;54.30;102534.63;7388347;19;20007;-63
2022/03/02 02:08:07;;;;;;;40.70;26.40;;;;;;;7.02;55.76;102531.19;7385552;19;20038;-61
2022/03/02 02:10:35;;;;;;;41.17;26.60;;;;;;;7.02;55.67;102528.59;7388430;19;20067;-63
2022/03/02 02:13:05;;;;;;;38.03;24.75;;;;;;;7.06;54.93;102521.63;7388989;19;20749;-63
2022/03/02 02:15:37;;;;;;;38.00;25.48;;;;;;;7.16;55.22;102517.25;7392285;19;20011;-63
2022/03/02 02:18:06;;;;;;;38.85;25.45;;;;;;;7.21;54.90;102516.38;7393029;19;20006;-63
2022/03/02 02:20:40;;;;;;;40.65;26.40;;;;;;;7.18;54.66;102512.91;7393130;19;20022;-62
2022/03/02 02:23:09;;;;;;;39.53;25.90;;;;;;;7.16;54.93;102518.13;7391358;19;20479;-63
2022/03/02 02:25:38;;;;;;;39.25;25.63;;;;;;;7.14;55.55;102501.63;7397105;19;20483;-63
2022/03/02 02:28:11;;;;;;;36.80;24.92;;;;;;;7.07;55.73;102499.91;7395478;19;20018;-61
2022/03/02 02:30:41;;;;;;;39.47;24.92;;;;;;;7.13;55.40;102505.09;7393539;19;20015;-62
2022/03/02 02:33:10;;;;;;;40.28;26.17;;;;;;;7.00;55.81;102496.44;7393498;19;20447;-63
2022/03/02 02:35:42;;;;;;;36.97;25.20;;;;;;;7.07;55.05;102499.91;7397434;19;20118;-62
2022/03/02 02:38:12;;;;;;;38.55;26.50;;;;;;;6.92;56.14;102490.41;7391849;19;20014;-61
2022/03/02 02:40:42;;;;;;;40.10;26.40;;;;;;;6.83;56.31;102496.47;7395506;19;20029;-63
2022/03/02 02:43:11;;;;;;;36.17;24.92;;;;;;;6.89;56.12;102500.81;7392216;19;20006;-62
2022/03/02 02:45:40;;;;;;;40.22;25.50;;;;;;;6.70;55.77;102498.22;7395018;19;20018;-63
2022/03/02 02:48:09;;;;;;;38.45;24.67;;;;;;;6.77;55.99;102496.47;7392487;19;20026;-63
2022/03/02 02:50:38;;;;;;;39.63;25.50;;;;;;;6.83;55.89;102495.59;7394602;19;20017;-63
2022/03/02 02:53:12;;;;;;;38.17;25.20;;;;;;;6.78;55.83;102481.72;7393662;19;20018;-63
2022/03/02 02:55:42;;;;;;;43.35;26.90;;;;;;;6.69;56.95;102483.47;7395888;19;20010;-63
2022/03/02 02:58:13;;;;;;;38.28;25.25;;;;;;;6.72;56.21;102488.69;7393862;19;20144;-63
2022/03/02 03:00:45;;;;;;;37.70;24.30;;;;;;;6.88;56.04;102480.84;7395186;19;20010;-62
2022/03/02 03:03:14;;;;;;;40.53;27.20;;;;;;;6.89;56.39;102480.84;7395476;19;20010;-62
2022/03/02 03:05:44;;;;;;;37.03;24.90;;;;;;;6.88;55.80;102483.47;7394719;19;20258;-63
2022/03/02 03:08:17;;;;;;;37.30;25.45;;;;;;;6.96;55.68;102484.28;7395411;19;20025;-62
2022/03/02 03:10:47;;;;;;;38.72;25.23;;;;;;;6.92;56.34;102482.59;7393695;19;20013;-63
2022/03/02 03:13:16;;;;;;;43.45;27.50;;;;;;;6.91;56.96;102486.06;7394588;19;20470;-63
2022/03/02 03:15:45;;;;;;;41.78;26.13;;;;;;;6.72;56.58;102483.47;7394088;19;20022;-63
2022/03/02 03:18:14;;;;;;;39.40;25.10;;;;;;;6.71;56.14;102486.09;7391580;19;20026;-63
2022/03/02 03:20:43;;;;;;;40.35;25.92;;;;;;;6.77;56.62;102480.84;7394590;19;20025;-63
2022/03/02 03:23:16;;;;;;;39.30;25.30;;;;;;;6.77;56.51;102474.78;7391256;19;20018;-63
2022/03/02 03:25:45;;;;;;;40.67;26.23;;;;;;;6.74;56.41;102478.25;7392716;19;20025;-63
2022/03/02 03:28:14;;;;;;;40.28;25.70;;;;;;;6.74;55.75;102476.50;7390451;19;20015;-63
2022/03/02 03:30:43;;;;;;;40.05;25.58;;;;;;;6.69;55.36;102464.34;7400585;19;20029;-64
2022/03/02 03:33:12;;;;;;;39.25;24.50;;;;;;;6.67;55.21;102471.31;7401986;19;20010;-63
2022/03/02 03:35:41;;;;;;;39.65;25.85;;;;;;;6.75;55.87;102465.22;7398540;19;20011;-62
2022/03/02 03:38:10;;;;;;;39.42;25.10;;;;;;;6.70;55.58;102468.72;7396812;19;20451;-63
2022/03/02 03:40:41;;;;;;;43.42;26.67;;;;;;;6.61;55.68;102461.78;7398637;19;20003;-63
2022/03/02 03:43:10;;;;;;;40.55;26.25;;;;;;;6.65;55.79;102465.22;7400168;19;20035;-66
2022/03/02 03:45:39;;;;;;;40.95;26.05;;;;;;;6.39;56.25;102463.50;7400866;19;20030;-63
2022/03/02 03:48:09;;;;;;;41.28;25.13;;;;;;;6.42;56.66;102453.13;7397972;19;20080;-62
2022/03/02 03:50:39;;;;;;;38.28;24.90;;;;;;;6.50;57.09;102458.31;7397292;19;20014;-62
2022/03/02 03:53:08;;;;;;;42.58;25.88;;;;;;;6.63;56.83;102456.56;7400030;19;20014;-63
2022/03/02 03:55:38;;;;;;;39.35;25.80;;;;;;;6.61;56.81;102445.28;7397570;19;20018;-63
2022/03/02 03:58:10;;;;;;;41.53;25.95;;;;;;;6.51;57.66;102449.63;7395827;19;20014;-64
2022/03/02 04:00:39;;;;;;;39.85;25.88;;;;;;;6.62;57.21;102450.50;7394815;19;20072;-63
2022/03/02 04:03:07;;;;;;;38.55;24.95;;;;;;;6.63;57.08;102456.56;7393393;19;20025;-62
2022/03/02 04:05:36;;;;;;;41.38;26.15;;;;;;;6.52;57.17;102448.75;7393387;19;20451;-63
2022/03/02 04:08:07;;;;;;;42.03;25.88;;;;;;;6.49;57.24;102451.38;7393705;19;20332;-63
2022/03/02 04:10:36;;;;;;;41.72;26.98;;;;;;;6.45;57.99;102444.41;7394568;19;20014;-63
2022/03/02 04:13:04;;;;;;;39.55;26.00;;;;;;;6.45;57.76;102439.22;7394364;19;20321;-62
2022/03/02 04:15:37;;;;;;;36.13;24.83;;;;;;;6.48;57.58;102440.09;7392435;19;20229;-63
2022/03/02 04:18:06;;;;;;;41.42;27.08;;;;;;;6.45;57.55;102432.28;7389285;19;20029;-63
2022/03/02 04:20:35;;;;;;;41.63;26.50;;;;;;;6.48;57.72;102432.28;7391574;19;20015;-63
2022/03/02 04:23:05;;;;;;;40.70;27.13;;;;;;;6.37;58.06;102429.66;7390413;19;20010;-63
2022/03/02 04:25:34;;;;;;;42.13;26.33;;;;;;;6.28;58.46;102431.44;7390346;19;20022;-64
2022/03/02 04:28:03;;;;;;;41.00;25.55;;;;;;;6.33;58.27;102429.69;7390912;19;20018;-64
2022/03/02 04:30:33;;;;;;;39.03;25.65;;;;;;;6.33;58.23;102427.06;7389452;19;20372;-64
2022/03/02 04:33:04;;;;;;;44.15;26.50;;;;;;;6.34;58.65;102434.88;7389995;19;20044;-63
2022/03/02 04:35:34;;;;;;;40.60;25.80;;;;;;;6.23;58.51;102426.22;7395249;19;20011;-63
2022/03/02 04:38:03;;;;;;;43.83;26.20;;;;;;;6.19;58.97;102429.66;7391960;19;20022;-63
2022/03/02 04:40:33;;;;;;;41.53;26.90;;;;;;;6.16;58.86;102430.56;7390290;19;20006;-63
2022/03/02 04:43:02;;;;;;;42.17;26.33;;;;;;;6.21;59.00;102426.22;7390589;19;20007;-64
2022/03/02 04:45:31;;;;;;;42.17;26.77;;;;;;;6.14;59.06;102421.88;7391294;19;20018;-63
2022/03/02 04:48:03;;;;;;;43.75;27.02;;;;;;;6.17;59.15;102416.66;7389258;19;20014;-63
2022/03/02 04:50:32;;;;;;;44.42;26.83;;;;;;;6.16;59.22;102417.56;7390352;19;20025;-62
2022/03/02 04:53:01;;;;;;;40.78;26.65;;;;;;;6.07;59.07;102417.53;7391688;19;20021;-62
2022/03/02 04:55:30;;;;;;;40.35;27.27;;;;;;;5.91;59.52;102413.16;7390055;19;20015;-62
2022/03/02 04:58:01;;;;;;;43.10;26.80;;;;;;;6.07;59.55;102409.72;7389784;19;20466;-62
2022/03/02 05:00:32;;;;;;;42.38;26.75;;;;;;;6.02;59.96;102411.47;7389009;19;20042;-62
2022/03/02 05:03:05;;;;;;;40.28;26.35;;;;;;;5.93;59.79;102412.31;7391495;19;20014;-62
2022/03/02 05:05:37;;;;;;;44.05;27.52;;;;;;;5.88;60.08;102412.28;7391549;19;20085;-64
2022/03/02 05:08:07;;;;;;;44.22;27.20;;;;;;;5.82;60.24;102416.63;7395120;19;20454;-63
2022/03/02 05:10:36;;;;;;;42.75;28.13;;;;;;;5.65;60.61;102408.78;7389624;19;20135;-64
2022/03/02 05:13:06;;;;;;;42.20;27.40;;;;;;;5.56;60.99;102409.66;7390106;19;20022;-63
2022/03/02 05:15:35;;;;;;;44.65;27.83;;;;;;;5.55;61.36;102405.31;7392428;19;20018;-64
2022/03/02 05:18:06;;;;;;;44.92;27.58;;;;;;;5.65;60.96;102401.00;7392543;19;20025;-64
2022/03/02 05:20:35;;;;;;;43.10;27.13;;;;;;;5.69;60.71;102405.34;7388628;19;20018;-64
2022/03/02 05:23:04;;;;;;;41.55;26.85;;;;;;;5.75;60.91;102400.13;7388116;19;20022;-63
2022/03/02 05:25:33;;;;;;;40.95;26.10;;;;;;;5.77;61.04;102397.53;7389679;19;20015;-63
2022/03/02 05:28:02;;;;;;;47.53;29.15;;;;;;;5.73;61.14;102394.06;7390680;19;20019;-63
2022/03/02 05:30:31;;;;;;;40.67;26.83;;;;;;;5.65;60.93;102401.00;7388751;19;20371;-64
2022/03/02 05:33:00;;;;;;;40.08;26.73;;;;;;;5.60;61.30;102401.00;7389924;19;20022;-64
2022/03/02 05:35:31;;;;;;;45.00;28.38;;;;;;;5.58;61.10;102399.25;7390842;19;20029;-64
2022/03/02 05:38:00;;;;;;;44.15;28.67;;;;;;;5.56;61.80;102401.84;7390567;19;20018;-63
2022/03/02 05:40:29;;;;;;;40.78;26.73;;;;;;;5.59;61.66;102394.06;7390581;19;20018;-64
2022/03/02 05:42:59;;;;;;;42.97;27.67;;;;;;;5.51;61.65;102400.97;7387784;19;20017;-64
2022/03/02 05:45:27;;;;;;;43.97;27.83;;;;;;;5.50;61.51;102397.50;7388031;19;20029;-64
2022/03/02 05:47:56;;;;;;;48.55;28.33;;;;;;;5.54;61.47;102390.56;7386360;19;20010;-63
2022/03/02 05:50:25;;;;;;;44.63;26.52;;;;;;;5.48;62.04;102390.56;7390099;19;20015;-62
2022/03/02 05:52:57;;;;;;;44.67;27.20;;;;;;;5.43;62.06;102394.88;7395466;19;20097;-63
2022/03/02 05:55:26;;;;;;;47.50;28.17;;;;;;;5.50;61.83;102397.50;7398556;19;20019;-63
2022/03/02 05:57:55;;;;;;;45.22;28.67;;;;;;;5.56;61.93;102401.84;7393992;19;20018;-63
2022/03/02 06:00:23;;;;;;;45.42;28.58;;;;;;;5.50;61.97;102401.81;7393922;19;20125;-63
2022/03/02 06:02:52;;;;;;;44.63;28.42;;;;;;;5.43;62.12;102397.47;7396539;19;20202;-62
2022/03/02 06:05:21;;;;;;;43.47;29.38;;;;;;;5.32;62.63;102403.50;7392025;19;20011;-63
2022/03/02 06:07:50;;;;;;;44.63;28.52;;;;;;;5.33;62.74;102397.44;7395877;19;20010;-64
2022/03/02 06:10:22;;;;;;;46.72;28.88;;;;;;;5.40;62.48;102397.47;7394811;19;20022;-61
2022/03/02 06:12:52;;;;;;;45.72;28.75;;;;;;;5.31;62.14;102400.91;7395184;19;20086;-63
2022/03/02 06:15:21;;;;;;;45.53;27.60;;;;;;;5.31;62.27;102400.91;7394396;19;20017;-63
2022/03/02 06:17:51;;;;;;;42.13;27.85;;;;;;;5.28;61.94;102399.16;7393333;19;20031;-63
2022/03/02 06:20:21;;;;;;;43.92;27.60;;;;;;;5.31;61.91;102400.91;7394842;19;20122;-63
2022/03/02 06:22:51;;;;;;;46.03;28.70;;;;;;;5.31;62.26;102406.94;7397220;19;20443;-62
2022/03/02 06:25:24;;;;;;;44.28;28.27;;;;;;;5.30;61.97;102404.34;7391426;19;20018;-63
2022/03/02 06:27:53;;;;;;;42.35;27.25;;;;;;;5.38;62.09;102408.72;7393804;19;20489;-63
2022/03/02 06:30:22;;;;;;;45.78;28.33;;;;;;;5.37;62.48;102411.31;7393015;19;20074;-63
2022/03/02 06:32:50;;;;;;;47.17;27.83;;;;;;;5.36;62.09;102409.59;7393605;19;20364;-62
2022/03/02 06:35:19;;;;;;;45.00;27.98;;;;;;;5.36;61.79;102413.06;7396223;19;20012;-63
2022/03/02 06:37:49;;;;;;;50.10;28.13;;;;;;;5.45;62.00;102417.41;7394534;19;20029;-63
2022/03/02 06:40:18;;;;;;;44.47;28.65;;;;;;;5.36;61.68;102413.06;7393203;19;20026;-63
2022/03/02 06:43:02;;;;;;;49.25;30.85;;;;;;;5.14;61.81;102419.91;7392952;19;20056;-64
2022/03/02 06:45:49;;;;;;;42.75;28.23;;;;;;;5.18;62.12;102423.38;7390642;19;20547;-64
2022/03/02 06:48:22;;;;;;;46.28;29.33;;;;;;;5.03;62.12;102421.59;7391935;19;20022;-62
2022/03/02 06:50:54;;;;;;;47.75;29.90;;;;;;;4.83;62.77;102422.34;7395262;19;20044;-63
2022/03/02 06:53:33;;;;;;;45.33;28.53;;;;;;;4.95;62.68;102425.88;7395948;19;20094;-64
2022/03/02 06:56:04;;;;;;;46.92;28.67;;;;;;;4.99;62.48;102417.25;7412706;19;20611;-62
2022/03/02 06:58:42;;;;;;;47.88;29.90;;;;;;;4.94;62.86;102419.81;7391401;19;20019;-63
2022/03/02 07:01:13;;;;;;;45.65;29.52;;;;;;;4.93;62.90;102418.06;7392131;19;20083;-63
2022/03/02 07:03:50;;;;;;;51.85;30.10;;;;;;;5.03;62.81;102422.44;7393916;19;20014;-63
2022/03/02 07:06:20;;;;;;;49.72;29.02;;;;;;;4.96;62.83;102425.88;7394641;19;20017;-64
2022/03/02 07:08:49;;;;;;;51.50;29.45;;;;;;;4.94;63.22;102427.63;7391825;19;20047;-62
2022/03/02 07:11:18;;;;;;;48.53;29.60;;;;;;;4.88;63.47;102422.38;7394368;19;20466;-65
2022/03/02 07:13:52;;;;;;;44.33;27.95;;;;;;;5.06;63.69;102423.31;7395087;19;20126;-62
2022/03/02 07:16:23;;;;;;;48.83;28.98;;;;;;;5.18;63.30;102424.22;7395056;19;20019;-64
2022/03/02 07:18:53;;;;;;;44.63;28.58;;;;;;;4.99;64.01;102425.03;7393155;19;20435;-62
2022/03/02 07:21:25;;;;;;;48.55;31.45;;;;;;;4.83;63.73;102424.09;7394095;19;20009;-63
2022/03/02 07:23:57;;;;;;;51.88;30.80;;;;;;;4.67;64.42;102424.00;7392688;19;20018;-62
2022/03/02 07:26:29;;;;;;;47.63;30.33;;;;;;;4.72;64.65;102431.81;7393293;19;20018;-62
2022/03/02 07:29:03;;;;;;;49.25;30.33;;;;;;;4.89;64.57;102421.50;7392779;19;20040;-61
2022/03/02 07:31:35;;;;;;;46.55;30.00;;;;;;;5.08;64.04;102426.81;7393360;19;20033;-63
2022/03/02 07:34:05;;;;;;;49.38;31.13;;;;;;;5.08;63.75;102425.06;7391742;19;20017;-62
2022/03/02 07:36:35;;;;;;;49.90;30.23;;;;;;;5.15;63.83;102424.22;7392934;19;20347;-62
2022/03/02 07:39:05;;;;;;;48.85;30.27;;;;;;;5.11;63.68;102421.63;7391697;19;20455;-62
2022/03/02 07:41:34;;;;;;;45.88;29.63;;;;;;;5.28;63.49;102425.16;7394870;19;20014;-63
2022/03/02 07:44:06;;;;;;;46.83;30.20;;;;;;;5.32;63.51;102426.03;7396236;19;20086;-61
2022/03/02 07:46:35;;;;;;;47.17;29.52;;;;;;;5.31;63.08;102427.75;7394752;19;20018;-60
2022/03/02 07:49:06;;;;;;;47.47;29.98;;;;;;;5.48;62.56;102425.22;7389679;19;20017;-55
2022/03/02 07:51:37;;;;;;;44.88;29.08;;;;;;;5.52;62.43;102426.97;7391743;19;20015;-62
2022/03/02 07:54:07;;;;;;;49.55;28.55;;;;;;;5.62;62.45;102425.25;7392060;19;20356;-62
2022/03/02 07:56:36;;;;;;;45.50;28.48;;;;;;;5.66;62.01;102421.81;7394393;19;20025;-63
2022/03/02 07:59:10;;;;;;;51.50;30.23;;;;;;;5.54;61.11;102432.16;7393624;19;20113;-59
2022/03/02 08:01:40;;;;;;;47.25;29.40;;;;;;;5.66;60.90;102419.19;7393846;19;20014;-63
2022/03/02 08:04:10;;;;;;;44.28;28.25;;;;;;;5.71;61.54;102422.66;7393046;19;20352;-61
2022/03/02 08:06:41;;;;;;;46.63;27.90;;;;;;;5.78;60.13;102423.53;7392384;19;20463;-60
2022/03/02 08:09:12;;;;;;;45.70;26.90;;;;;;;5.91;59.96;102418.38;7389075;19;20018;-63
2022/03/02 08:11:41;;;;;;;45.13;28.02;;;;;;;5.98;59.53;102412.34;7391887;19;20019;-63
2022/03/02 08:14:13;;;;;;;44.63;28.00;;;;;;;6.03;59.22;102414.06;7395003;19;20145;-64
2022/03/02 08:16:43;;;;;;;42.30;27.02;;;;;;;5.86;57.85;102406.22;7390916;19;20014;-59
2022/03/02 08:19:12;;;;;;;39.38;25.98;;;;;;;5.85;57.95;102419.22;7391969;19;20726;-62
2022/03/02 08:21:44;;;;;;;41.08;26.77;;;;;;;5.87;58.51;102414.88;7393358;19;20014;-62
2022/03/02 08:24:17;;;;;;;41.22;26.00;;;;;;;6.02;57.52;102417.53;7392069;19;20347;-61
2022/03/02 08:26:52;;;;;;;40.65;25.52;;;;;;;6.09;56.49;102417.53;7391037;19;20015;-64
2022/03/02 08:29:29;;;;;;;38.72;25.10;;;;;;;6.26;56.58;102425.34;7389572;19;20018;-63
2022/03/02 08:32:02;;;;;;;40.28;25.10;;;;;;;6.23;55.50;102419.28;7391656;19;20362;-61
2022/03/02 08:34:33;;;;;;;40.00;25.00;;;;;;;6.23;54.67;102421.00;7390793;19;20018;-62
2022/03/02 08:37:03;;;;;;;35.17;23.63;;;;;;;6.24;54.12;102421.00;7394398;19;20011;-59
2022/03/02 08:39:32;;;;;;;37.03;23.35;;;;;;;6.29;52.71;102427.94;7389654;19;20332;-60
2022/03/02 08:42:01;;;;;;;35.05;21.85;;;;;;;6.33;52.54;102422.75;7392349;19;20030;-62
2022/03/02 08:44:32;;;;;;;39.75;22.17;;;;;;;6.48;51.08;102421.00;7390125;19;20017;-63
2022/03/02 08:47:01;;;;;;;46.65;22.67;;;;;;;6.54;52.23;102413.19;7392151;19;20019;-63
2022/03/02 08:49:30;;;;;;;53.22;24.92;;;;;;;6.74;52.19;102418.34;7388616;19;20098;-59
2022/03/02 08:52:00;;;;;;;36.75;21.85;;;;;;;6.93;51.70;102417.44;7389448;19;20010;-62
2022/03/02 08:54:36;;;;;;;36.95;23.25;;;;;;;6.84;49.90;102417.44;7389348;19;20019;-58
2022/03/02 08:57:06;;;;;;;36.10;22.23;;;;;;;6.95;50.98;102420.03;7396219;19;20487;-58
2022/03/02 08:59:37;;;;;;;36.70;22.80;;;;;;;6.93;49.91;102412.22;7388406;19;20022;-57
2022/03/02 09:02:10;;;;;;;35.13;21.90;;;;;;;6.81;48.23;102407.03;7390712;19;20018;-60
2022/03/02 09:04:40;;;;;;;37.40;21.90;;;;;;;6.92;49.17;102412.22;7389765;19;20026;-59
2022/03/02 09:07:09;;;;;;;35.20;22.65;;;;;;;7.06;48.18;102406.94;7392618;19;20475;-60
2022/03/02 09:09:39;;;;;;;36.05;20.80;;;;;;;7.25;48.43;102400.78;7388573;19;20018;-63
2022/03/02 09:12:10;;;;;;;38.28;22.33;;;;;;;7.19;47.49;102399.94;7392499;19;20077;-63
2022/03/02 09:14:42;;;;;;;35.75;21.50;;;;;;;7.26;48.11;102399.03;7397649;19;20018;-63
2022/03/02 09:17:11;;;;;;;35.90;22.38;;;;;;;7.26;48.08;102407.75;7394298;19;20015;-63
2022/03/02 09:19:40;;;;;;;48.42;23.02;;;;;;;7.31;48.04;102397.28;7390013;19;20498;-64
2022/03/02 09:22:09;;;;;;;45.97;22.90;;;;;;;7.59;48.31;102399.72;7393809;19;20007;-61
2022/03/02 09:24:39;;;;;;;55.28;22.90;;;;;;;7.63;46.83;102401.44;7392502;19;20030;-63
2022/03/02 09:27:11;;;;;;;37.75;21.88;;;;;;;7.56;46.97;102397.97;7400001;19;20022;-64
2022/03/02 09:29:45;;;;;;;35.60;21.70;;;;;;;7.64;46.75;102395.34;7393582;19;20026;-61
2022/03/02 09:32:14;;;;;;;35.65;22.75;;;;;;;7.70;46.62;102400.50;7397987;19;20893;-63
2022/03/02 09:34:49;;;;;;;35.72;22.15;;;;;;;7.77;47.38;102396.13;7397028;19;20017;-63
2022/03/02 09:37:19;;;;;;;33.15;22.50;;;;;;;7.85;47.06;102394.34;7398364;19;20804;-61
2022/03/02 09:39:48;;;;;;;34.03;21.38;;;;;;;7.92;46.76;102393.41;7397651;19;20027;-62
2022/03/02 09:42:23;;;;;;;34.92;22.48;;;;;;;8.01;46.74;102392.47;7400386;19;20021;-62
2022/03/02 09:45:00;;;;;;;33.78;21.95;;;;;;;8.12;46.20;102393.25;7396956;19;20011;-63
2022/03/02 09:47:43;;;;;;;32.60;21.42;;;;;;;8.23;46.30;102381.84;7398010;19;20018;-64
2022/03/02 09:50:15;;;;;;;;;;;;;;;8.22;45.98;102377.47;7398678;19;20070;-63
2022/03/02 09:52:45;;;;;;;33.75;22.05;;;;;;;8.35;46.07;102376.47;7396563;19;19918;-64
2022/03/02 09:55:16;;;;;;;33.08;21.17;;;;;;;8.52;45.53;102372.88;7396877;19;20333;-63
2022/03/02 09:57:47;;;;;;;31.35;21.23;;;;;;;8.66;44.61;102374.44;7395131;19;20033;-64
2022/03/02 10:00:21;;;;;;;32.80;22.13;;;;;;;8.54;44.64;102377.22;7395391;19;20026;-63
2022/03/02 10:02:52;;;;;;;33.75;21.20;;;;;;;8.52;44.94;102365.88;7395298;19;20439;-61
2022/03/02 10:05:23;;;;;;;33.83;22.48;;;;;;;8.61;45.99;102380.59;7394629;19;20030;-64
2022/03/02 10:08:01;;;;;;;34.38;22.77;;;;;;;8.73;45.99;102377.88;7397568;19;20077;-64
2022/03/02 10:10:33;;;;;;;35.65;22.80;;;;;;;8.81;46.31;102378.66;7393486;19;20015;-64
2022/03/02 10:13:04;;;;;;;35.15;22.13;;;;;;;8.83;46.12;102374.25;7397457;19;20022;-65
2022/03/02 10:15:36;;;;;;;33.30;22.42;;;;;;;8.93;47.14;102374.16;7395865;19;20530;-65
2022/03/02 10:18:07;;;;;;;37.35;25.45;;;;;;;8.92;46.60;102377.66;7394747;19;20018;-64
2022/03/02 10:20:38;;;;;;;33.95;22.80;;;;;;;8.83;46.29;102371.63;7395300;19;20120;-64
2022/03/02 10:23:34;;;;;;;32.60;22.25;;;;;;;8.99;45.88;102380.16;7400132;19;20037;-64
2022/03/02 10:26:06;;;;;;;34.58;23.02;;;;;;;8.92;45.63;102378.50;7394123;19;20018;-65
2022/03/02 10:28:49;;;;;;;33.22;22.20;;;;;;;8.92;46.48;102385.50;7398127;19;20327;-65
2022/03/02 10:31:29;;;;;;;36.83;22.98;;;;;;;8.96;45.50;102379.34;7393881;19;20018;-65
2022/03/02 10:34:03;;;;;;;34.58;23.60;;;;;;;9.03;46.12;102369.66;7394487;19;20022;-66
2022/03/02 10:36:33;;;;;;;35.40;23.45;;;;;;;9.16;46.59;102372.09;7393659;19;20515;-65
2022/03/02 10:39:08;;;;;;;38.70;23.88;;;;;;;9.34;46.06;102375.34;7392410;19;20022;-65
2022/03/02 10:41:40;;;;;;;33.25;21.98;;;;;;;9.51;45.60;102369.88;7394952;19;20022;-65
2022/03/02 10:44:17;;;;;;;35.08;23.83;;;;;;;9.44;45.07;102379.59;7398218;19;20018;-64
2022/03/02 10:46:59;;;;;;;33.88;22.10;;;;;;;9.58;45.44;102368.88;7398036;19;20015;-65
2022/03/02 10:49:30;;;;;;;34.45;23.48;;;;;;;9.63;45.58;102364.47;7393585;19;20037;-64
2022/03/02 10:52:03;;;;;;;32.10;22.42;;;;;;;9.57;45.19;102361.94;7396687;19;20453;-65
2022/03/02 10:54:34;;;;;;;35.53;24.00;;;;;;;9.57;45.89;102358.44;7394132;19;20486;-64
2022/03/02 10:57:06;;;;;;;34.72;23.27;;;;;;;9.31;44.95;102368.44;7410636;19;20050;-63
2022/03/02 10:59:35;;;;;;;32.65;21.65;;;;;;;9.27;44.75;102361.50;7397628;19;20495;-64
2022/03/02 11:02:07;;;;;;;35.40;22.88;;;;;;;9.35;45.71;102357.00;7399505;19;20014;-62
2022/03/02 11:04:40;;;;;;;33.60;22.83;;;;;;;9.46;45.19;102359.47;7396797;19;20059;-64
2022/03/02 11:07:10;;;;;;;35.20;23.35;;;;;;;9.54;45.04;102356.72;7392791;19;20492;-64
2022/03/02 11:09:40;;;;;;;39.67;22.55;;;;;;;9.53;44.50;102355.88;7392475;19;20056;-65
2022/03/02 11:12:11;;;;;;;36.90;22.58;;;;;;;9.65;44.30;102349.59;7395530;19;20024;-63
2022/03/02 11:14:56;;;;;;;31.67;21.70;;;;;;;9.75;44.09;102346.84;7398471;19;20078;-62
2022/03/02 11:17:27;;;;;;;32.83;22.08;;;;;;;9.87;42.56;102339.66;7398921;19;20122;-64
2022/03/02 11:19:57;;;;;;;27.83;19.77;;;;;;;9.88;41.91;102340.50;7392014;19;20037;-64
2022/03/02 11:22:28;;;;;;;29.60;20.02;;;;;;;9.86;42.01;102342.28;7395964;19;20033;-63
2022/03/02 11:24:58;;;;;;;33.22;20.20;;;;;;;9.89;42.33;102339.63;7393987;19;20611;-65
2022/03/02 11:27:29;;;;;;;29.70;20.00;;;;;;;9.98;41.96;102330.72;7392208;19;20026;-65
2022/03/02 11:30:08;;;;;;;28.27;19.70;;;;;;;9.97;41.22;102332.50;7392680;19;20021;-64
2022/03/02 11:32:42;;;;;;;33.63;20.90;;;;;;;9.91;42.00;102332.59;7393668;19;20015;-64